Time;durP1;ratioP1;P1;durP2;ratioP2;P2;SDS_P1;SDS_P2;PMS_P1;PMS_P2;Temp;Humidity;BMP_temperature;BMP_pressure;BME280_temperature;BME280_humidity;BME280_pressure;Samples;Min_cycle;Max_cycle;Signal;HPM_P1;HPM_P2
2023/06/25 00:02:46;;;;;;;14.70;9.50;;;;;;;17.74;100.00;100758.90;185068;1238;43479;-61
2023/06/25 00:06:49;;;;;;;20.10;11.10;;;;;;;17.71;100.00;100761.67;185004;1237;58135;-61
2023/06/25 00:10:51;;;;;;;18.50;10.40;;;;;;;17.65;100.00;100762.15;184852;1237;46091;-61
2023/06/25 00:14:53;;;;;;;15.80;10.90;;;;;;;17.58;100.00;100759.27;184817;1237;43513;-60
2023/06/25 00:18:56;;;;;;;15.00;11.10;;;;;;;17.53;100.00;100758.90;184718;1237;45844;-61
2023/06/25 00:22:57;;;;;;;15.50;11.70;;;;;;;17.45;100.00;100752.70;184600;1237;43478;-61
2023/06/25 00:27:32;;;;;;;14.90;12.00;;;;;;;17.37;100.00;100754.40;184652;1238;58556;-61
2023/06/25 00:31:34;;;;;;;15.70;11.00;;;;;;;17.34;100.00;100754.83;184704;1238;46070;-61
2023/06/25 00:35:56;;;;;;;17.60;11.00;;;;;;;17.30;100.00;100756.98;184288;1238;45964;-61
2023/06/25 00:39:58;;;;;;;15.90;11.40;;;;;;;17.16;100.00;100759.80;184474;1238;46012;-61
2023/06/25 00:44:08;;;;;;;18.00;11.30;;;;;;;17.14;100.00;100760.59;184468;1238;45977;-61
2023/06/25 00:48:11;;;;;;;13.10;11.00;;;;;;;17.10;100.00;100755.92;184528;1238;58419;-63
2023/06/25 00:52:15;;;;;;;21.70;13.40;;;;;;;16.99;100.00;100753.64;184525;1238;45964;-61
2023/06/25 00:56:17;;;;;;;16.50;12.40;;;;;;;16.76;100.00;100754.73;184620;1237;44839;-60
2023/06/25 01:00:33;;;;;;;19.20;11.20;;;;;;;16.66;100.00;100756.88;184633;1237;46072;-61
2023/06/25 01:04:45;;;;;;;15.60;12.60;;;;;;;16.63;100.00;100755.76;184540;1239;43771;-61
2023/06/25 01:08:50;;;;;;;44.80;14.50;;;;;;;16.66;100.00;100752.30;184618;1239;59116;-60
2023/06/25 01:12:54;;;;;;;17.50;12.30;;;;;;;16.72;100.00;100753.62;184718;1239;44882;-61
2023/06/25 01:16:56;;;;;;;18.40;11.70;;;;;;;16.65;100.00;100760.83;184734;1237;44633;-61
2023/06/25 01:21:49;;;;;;;25.00;11.50;;;;;;;16.44;100.00;100760.91;184703;1238;46092;-61
2023/06/25 01:25:51;;;;;;;23.80;12.10;;;;;;;16.23;100.00;100754.16;184645;1238;45891;-61
2023/06/25 01:29:54;;;;;;;16.00;12.20;;;;;;;16.22;100.00;100753.71;184628;1238;58723;-61
2023/06/25 01:33:56;;;;;;;23.60;12.20;;;;;;;16.25;100.00;100752.39;184686;1237;44681;-61
2023/06/25 01:37:58;;;;;;;16.00;12.10;;;;;;;16.31;100.00;100748.73;184732;1237;45910;-61
2023/06/25 01:42:02;;;;;;;19.10;13.60;;;;;;;16.37;100.00;100744.23;184661;1237;45279;-61
2023/06/25 01:46:03;;;;;;;20.50;14.40;;;;;;;16.39;100.00;100737.94;184732;1237;43497;-61
2023/06/25 01:50:05;;;;;;;26.90;15.70;;;;;;;16.41;100.00;100731.45;184616;1237;58779;-61
2023/06/25 01:54:07;;;;;;;19.50;13.70;;;;;;;16.47;100.00;100731.30;184626;1238;43925;-61
2023/06/25 01:58:17;;;;;;;20.10;14.70;;;;;;;16.51;100.00;100727.61;184508;1240;211541;-60
2023/06/25 02:02:18;;;;;;;31.50;15.60;;;;;;;16.48;100.00;100724.73;184895;1238;43487;-61
2023/06/25 02:06:33;;;;;;;23.60;14.80;;;;;;;16.47;100.00;100726.43;184969;1237;43984;-62
2023/06/25 02:10:34;;;;;;;29.80;13.60;;;;;;;16.45;100.00;100724.86;184470;1237;58304;-61
2023/06/25 02:14:51;;;;;;;25.90;13.90;;;;;;;16.44;100.00;100727.42;184549;1240;45951;-61
2023/06/25 02:18:53;;;;;;;21.20;13.90;;;;;;;16.41;100.00;100724.45;184586;1237;43492;-61
2023/06/25 02:23:09;;;;;;;23.70;14.30;;;;;;;16.39;100.00;100723.81;184647;1237;46137;-61
2023/06/25 02:27:13;;;;;;;27.00;15.90;;;;;;;16.34;100.00;100720.29;184538;1237;43964;-61
2023/06/25 02:31:15;;;;;;;23.60;13.50;;;;;;;16.31;100.00;100721.19;184595;1238;58505;-61
2023/06/25 02:35:18;;;;;;;27.60;15.60;;;;;;;16.26;100.00;100718.30;184698;1237;44628;-61
2023/06/25 02:39:20;;;;;;;34.30;18.50;;;;;;;16.20;100.00;100712.06;184731;1237;43781;-61
2023/06/25 02:43:22;;;;;;;28.80;18.20;;;;;;;16.05;100.00;100710.30;184664;1238;46009;-61
2023/06/25 02:47:24;;;;;;;32.60;18.80;;;;;;;15.76;100.00;100710.38;184681;1238;44913;-61
2023/06/25 02:51:26;;;;;;;31.20;16.10;;;;;;;15.62;100.00;100706.88;184638;1237;59401;-61
2023/06/25 02:55:28;;;;;;;28.60;14.90;;;;;;;15.64;100.00;100710.99;184679;1238;44278;-61
2023/06/25 02:59:30;;;;;;;28.90;16.60;;;;;;;15.72;100.00;100705.80;184537;1237;45888;-61
2023/06/25 03:03:31;;;;;;;22.10;16.00;;;;;;;15.81;100.00;100702.92;184751;1237;43494;-61
2023/06/25 03:07:33;;;;;;;33.00;21.20;;;;;;;15.77;100.00;100706.73;184648;1238;44621;-61
2023/06/25 03:11:36;;;;;;;36.40;23.30;;;;;;;15.59;100.00;100707.02;184584;1238;59023;-61
2023/06/25 03:15:40;;;;;;;43.60;21.00;;;;;;;15.50;100.00;100711.42;184609;1238;46018;-61
2023/06/25 03:19:41;;;;;;;41.40;20.70;;;;;;;15.43;100.00;100709.77;184676;1237;45965;-61
2023/06/25 03:24:03;;;;;;;34.40;20.80;;;;;;;15.32;100.00;100709.19;184752;1237;43841;-61
2023/06/25 03:28:05;;;;;;;45.70;20.80;;;;;;;15.29;100.00;100706.96;184822;1238;44688;-61
2023/06/25 03:32:07;;;;;;;39.80;22.70;;;;;;;15.23;100.00;100701.68;184685;1237;58241;-61
2023/06/25 03:36:14;;;;;;;41.10;25.20;;;;;;;15.19;100.00;100706.64;184671;1236;44636;-60
2023/06/25 03:40:16;;;;;;;32.60;20.40;;;;;;;15.19;100.00;100704.18;184721;1237;43978;-61
2023/06/25 03:44:17;;;;;;;48.00;23.90;;;;;;;15.14;100.00;100702.48;184630;1238;45986;-60
2023/06/25 03:48:19;;;;;;;41.60;24.70;;;;;;;15.23;100.00;100704.36;184521;1238;45948;-62
2023/06/25 03:52:23;;;;;;;52.80;28.10;;;;;;;15.41;100.00;100706.95;184752;1237;59668;-60
2023/06/25 03:56:24;;;;;;;59.20;31.50;;;;;;;15.54;100.00;100710.90;185061;1239;44919;-61
2023/06/25 04:00:26;;;;;;;49.20;32.80;;;;;;;15.77;100.00;100709.04;185111;1237;43477;-60
2023/06/25 04:04:27;;;;;;;57.20;30.20;;;;;;;16.09;100.00;100708.09;184834;1238;45910;-61
2023/06/25 04:08:29;;;;;;;45.70;28.60;;;;;;;16.42;100.00;100704.66;184608;1238;45952;-62
2023/06/25 04:12:38;;;;;;;40.50;24.10;;;;;;;16.76;100.00;100698.94;184822;1236;58140;-61
2023/06/25 04:16:41;;;;;;;38.60;25.20;;;;;;;17.09;100.00;100693.52;184824;1238;45867;-61
2023/06/25 04:20:43;;;;;;;45.50;24.70;;;;;;;17.38;100.00;100695.70;184742;1238;43476;-61
2023/06/25 04:24:44;;;;;;;36.00;20.80;;;;;;;17.77;100.00;100696.48;184739;1236;43656;-61
2023/06/25 04:28:46;;;;;;;31.70;19.70;;;;;;;18.22;100.00;100692.31;184836;1237;45958;-61
2023/06/25 04:32:51;;;;;;;31.70;19.10;;;;;;;19.02;100.00;100688.13;184691;1238;57317;-61
2023/06/25 04:36:53;;;;;;;22.40;16.20;;;;;;;19.86;100.00;100690.02;184671;1238;43764;-61
2023/06/25 04:40:55;;;;;;;23.60;14.70;;;;;;;20.49;97.56;100689.24;184869;1238;43651;-62
2023/06/25 04:44:59;;;;;;;21.70;14.80;;;;;;;20.82;93.55;100684.73;184959;1238;43535;-61
2023/06/25 04:49:01;;;;;;;47.00;15.80;;;;;;;20.90;93.36;100686.64;184699;1237;43877;-62
2023/06/25 04:53:17;;;;;;;19.50;12.70;;;;;;;21.62;91.81;100686.14;184490;1237;58637;-61
2023/06/25 04:57:20;;;;;;;21.90;14.80;;;;;;;21.84;85.51;100685.23;184497;1239;43520;-61
2023/06/25 05:01:23;;;;;;;25.30;14.20;;;;;;;22.10;85.31;100682.63;184627;1238;43937;-62
2023/06/25 05:05:25;;;;;;;17.30;11.70;;;;;;;22.46;83.81;100676.73;184705;1240;44570;-62
2023/06/25 05:09:26;;;;;;;19.70;12.20;;;;;;;22.62;83.78;100673.80;184691;1237;45059;-61
2023/06/25 05:13:30;;;;;;;15.20;11.10;;;;;;;22.97;83.53;100673.13;184940;1237;58977;-61
2023/06/25 05:17:32;;;;;;;15.00;8.80;;;;;;;23.27;80.48;100675.83;184756;1237;43924;-62
2023/06/25 05:21:34;;;;;;;18.70;9.40;;;;;;;23.63;79.39;100677.52;184831;1239;44619;-61
2023/06/25 05:25:36;;;;;;;13.80;7.10;;;;;;;23.85;77.54;100679.17;184690;1238;45851;-61
2023/06/25 05:30:06;;;;;;;14.80;8.20;;;;;;;24.26;76.38;100680.07;184523;1238;45960;-62
2023/06/25 05:34:07;;;;;;;9.80;7.70;;;;;;;24.78;74.78;100682.27;184810;1240;58556;-62
2023/06/25 05:38:09;;;;;;;9.00;7.30;;;;;;;25.10;71.57;100678.92;184715;1238;46036;-61
2023/06/25 05:42:10;;;;;;;12.20;8.70;;;;;;;25.19;70.40;100675.43;184836;1238;43514;-62
2023/06/25 05:46:13;;;;;;;13.00;7.60;;;;;;;25.28;70.20;100676.53;184705;1237;43684;-62
2023/06/25 05:50:15;;;;;;;13.10;7.90;;;;;;;25.34;70.16;100671.86;184711;1236;45267;-62
2023/06/25 05:54:19;;;;;;;10.00;8.30;;;;;;;25.41;71.41;100671.42;184570;1238;58927;-62
2023/06/25 05:58:21;;;;;;;7.20;6.40;;;;;;;25.75;70.29;100674.91;184780;1238;43722;-62
2023/06/25 06:02:25;;;;;;;10.80;7.90;;;;;;;25.62;70.14;100673.25;184776;1237;43899;-62
2023/06/25 06:06:29;;;;;;;9.20;7.60;;;;;;;25.68;69.12;100672.17;184743;1237;44961;-62
2023/06/25 06:10:32;;;;;;;12.30;8.10;;;;;;;25.83;68.52;100671.23;184738;1240;44935;-62
2023/06/25 06:14:34;;;;;;;9.20;7.40;;;;;;;26.03;69.37;100673.95;184696;1237;59331;-62
2023/06/25 06:19:06;;;;;;;11.20;6.90;;;;;;;26.07;68.32;100669.94;184719;1238;45238;-63
2023/06/25 06:23:07;;;;;;;11.10;7.30;;;;;;;26.30;65.89;100668.94;184781;1237;44976;-63
2023/06/25 06:27:11;;;;;;;13.50;8.80;;;;;;;26.51;66.59;100669.90;184707;1238;45854;-63
2023/06/25 06:31:13;;;;;;;8.10;6.90;;;;;;;26.75;65.24;100671.73;184730;1238;43860;-63
2023/06/25 06:35:22;;;;;;;9.70;6.90;;;;;;;26.90;63.71;100672.30;184674;1239;57075;-63
2023/06/25 06:39:23;;;;;;;10.10;5.80;;;;;;;26.94;61.50;100672.69;184761;1236;45977;-63
2023/06/25 06:43:25;;;;;;;12.40;6.50;;;;;;;26.87;61.05;100671.47;184583;1239;45056;-63
2023/06/25 06:47:27;;;;;;;5.80;4.80;;;;;;;26.76;61.08;100671.86;184653;1240;45978;-63
2023/06/25 06:51:28;;;;;;;7.50;5.70;;;;;;;26.64;58.13;100676.67;184690;1237;44582;-63
2023/06/25 06:55:33;;;;;;;5.40;4.80;;;;;;;26.58;57.30;100674.54;184640;1238;58499;-63
2023/06/25 06:59:34;;;;;;;5.00;3.90;;;;;;;26.58;57.23;100673.83;184635;1239;43758;-63
2023/06/25 07:03:36;;;;;;;6.00;3.90;;;;;;;26.80;56.60;100668.10;184682;1238;45837;-63
2023/06/25 07:07:37;;;;;;;7.70;4.40;;;;;;;27.14;54.41;100664.41;184662;1238;45900;-63
2023/06/25 07:11:39;;;;;;;5.60;3.20;;;;;;;27.50;54.94;100658.86;184625;1237;43778;-63
2023/06/25 07:15:41;;;;;;;4.30;3.80;;;;;;;27.66;53.26;100656.44;184797;1237;58040;-63
2023/06/25 07:19:43;;;;;;;5.70;3.00;;;;;;;27.72;54.51;100651.41;184920;1237;43482;-63
2023/06/25 07:23:44;;;;;;;5.50;3.70;;;;;;;27.92;54.03;100647.18;185067;1239;44027;-62
2023/06/25 07:27:46;;;;;;;4.90;4.40;;;;;;;27.71;53.66;100646.38;185020;1238;45932;-62
2023/06/25 07:31:55;;;;;;;4.50;4.10;;;;;;;27.59;53.39;100643.47;184550;1238;45122;-62
2023/06/25 07:35:57;;;;;;;5.50;3.20;;;;;;;27.51;53.89;100643.48;184708;1238;57210;-62
2023/06/25 07:40:07;;;;;;;3.50;2.50;;;;;;;27.32;54.97;100643.48;184804;1238;44963;-63
2023/06/25 07:44:08;;;;;;;4.70;2.90;;;;;;;26.87;50.91;100648.17;184660;1240;44730;-63
2023/06/25 07:48:30;;;;;;;4.50;2.80;;;;;;;26.47;54.45;100654.28;184862;1238;43709;-63
2023/06/25 07:52:32;;;;;;;3.30;2.50;;;;;;;26.30;54.12;100648.71;184521;1240;46049;-62
2023/06/25 07:56:33;;;;;;;5.10;3.70;;;;;;;26.25;55.32;100651.85;184568;1238;58490;-62
2023/06/25 08:00:36;;;;;;;5.50;3.80;;;;;;;26.22;55.41;100651.49;184689;1237;43670;-62
2023/06/25 08:04:38;;;;;;;6.40;4.00;;;;;;;26.25;56.06;100650.22;184744;1238;45899;-62
2023/06/25 08:08:41;;;;;;;5.50;3.70;;;;;;;26.21;56.54;100655.37;184661;1239;43711;-62
2023/06/25 08:12:48;;;;;;;7.40;4.10;;;;;;;26.10;56.89;100656.67;184808;1239;43455;-62
2023/06/25 08:16:50;;;;;;;5.50;3.70;;;;;;;25.99;56.88;100657.70;184666;1239;58908;-62
2023/06/25 08:20:52;;;;;;;5.90;4.00;;;;;;;25.94;57.67;100654.42;184657;1237;45939;-63
2023/06/25 08:24:55;;;;;;;5.60;3.50;;;;;;;25.98;58.37;100650.38;184722;1239;45897;-62
2023/06/25 08:28:57;;;;;;;6.50;4.60;;;;;;;25.86;58.79;100646.27;184772;1238;46133;-61
2023/06/25 08:32:59;;;;;;;5.90;3.80;;;;;;;25.76;58.42;100649.08;184529;1237;43542;-62
2023/06/25 08:37:00;;;;;;;5.00;4.20;;;;;;;25.45;58.98;100647.04;184661;1238;58395;-62
2023/06/25 08:41:05;;;;;;;6.40;4.10;;;;;;;25.39;60.67;100645.16;184730;1238;45316;-63
2023/06/25 08:45:11;;;;;;;6.00;4.50;;;;;;;25.24;58.95;100645.05;184697;1238;43635;-62
2023/06/25 08:49:15;;;;;;;4.60;3.80;;;;;;;25.05;60.18;100650.17;184863;1238;43631;-61
2023/06/25 08:53:17;;;;;;;5.00;4.50;;;;;;;24.88;60.10;100656.04;184773;1237;46079;-61
2023/06/25 08:57:21;;;;;;;4.70;3.10;;;;;;;24.86;60.89;100658.67;184814;1238;59085;-62
2023/06/25 09:01:23;;;;;;;8.00;4.50;;;;;;;24.95;60.23;100661.16;184836;1237;46016;-62
2023/06/25 09:05:29;;;;;;;5.10;4.10;;;;;;;25.07;58.82;100656.58;184756;1240;46192;-62
2023/06/25 09:09:30;;;;;;;;;;;;;;;25.20;60.64;100652.48;184931;1239;46044;-61
2023/06/25 09:13:36;;;;;;;4.10;3.70;;;;;;;25.03;62.58;100653.96;184820;1240;45802;-61
2023/06/25 09:17:37;;;;;;;5.10;3.60;;;;;;;24.99;61.56;100652.13;184767;1238;58980;-62
2023/06/25 09:21:39;;;;;;;4.80;4.00;;;;;;;24.98;63.33;100658.06;184814;1238;43546;-61
2023/06/25 09:25:41;;;;;;;5.70;4.00;;;;;;;25.08;66.06;100651.59;184978;1237;45895;-61
2023/06/25 09:29:44;;;;;;;6.80;4.60;;;;;;;25.25;64.71;100646.48;185200;1238;45858;-61
2023/06/25 09:33:56;;;;;;;5.10;4.50;;;;;;;25.31;63.71;100642.05;184977;1237;43668;-62
2023/06/25 09:38:01;;;;;;;5.60;5.00;;;;;;;25.47;63.17;100639.11;184794;1238;58363;-62
2023/06/25 09:42:19;;;;;;;6.10;4.60;;;;;;;25.61;64.58;100641.30;184529;1240;46012;-62
2023/06/25 09:46:21;;;;;;;6.70;4.60;;;;;;;25.61;64.99;100636.63;184832;1238;44960;-62
2023/06/25 09:50:28;;;;;;;8.60;5.20;;;;;;;25.55;64.76;100637.75;184944;1238;45944;-65
2023/06/25 09:54:32;;;;;;;5.30;4.60;;;;;;;25.54;65.34;100631.14;184720;1237;43800;-64
2023/06/25 09:58:35;;;;;;;4.90;4.40;;;;;;;25.72;65.93;100631.77;185044;1238;57457;-66
2023/06/25 10:08:19;;;;;;;4.80;4.40;;;;;;;25.87;66.26;100625.46;184880;1239;43673;-64
2023/06/25 10:12:21;;;;;;;7.50;6.70;;;;;;;25.81;66.90;100621.23;184718;1237;46122;-63
2023/06/25 10:16:33;;;;;;;7.60;6.50;;;;;;;25.81;68.07;100619.46;184685;1237;44986;-63
2023/06/25 10:20:44;;;;;;;7.20;5.20;;;;;;;25.95;69.91;100615.44;184776;1238;60653;-62
2023/06/25 10:24:55;;;;;;;5.10;4.20;;;;;;;26.04;64.75;100614.19;184887;1236;43722;-64
2023/06/25 10:29:10;;;;;;;5.40;3.90;;;;;;;26.03;64.13;100604.73;184979;1237;43525;-62
2023/06/25 10:33:16;;;;;;;8.20;4.80;;;;;;;26.13;63.90;100603.36;184595;1240;44630;-62
2023/06/25 10:37:19;;;;;;;7.40;4.50;;;;;;;26.23;64.75;100598.13;184909;1238;43612;-62
2023/06/25 10:41:31;;;;;;;5.80;4.90;;;;;;;26.25;65.65;100599.55;184825;1238;59150;-62
2023/06/25 10:45:38;;;;;;;5.20;4.70;;;;;;;26.09;61.88;100594.28;184472;1240;44728;-65
2023/06/25 10:49:46;;;;;;;6.30;4.00;;;;;;;25.95;66.26;100592.84;185153;1237;43741;-63
2023/06/25 10:53:47;;;;;;;6.90;5.40;;;;;;;26.03;65.64;100585.48;185338;1240;46207;-65
2023/06/25 10:57:49;;;;;;;6.60;4.70;;;;;;;25.91;66.53;100584.90;185175;1238;44795;-62
2023/06/25 11:01:51;;;;;;;7.90;4.00;;;;;;;25.85;65.16;100579.58;184861;1238;58198;-63
2023/06/25 11:06:02;;;;;;;6.90;4.70;;;;;;;25.83;64.26;100569.98;184823;1238;43827;-63
2023/06/25 11:10:08;;;;;;;4.70;3.20;;;;;;;25.69;64.66;100565.39;184788;1238;45903;-62
2023/06/25 11:14:12;;;;;;;6.00;3.60;;;;;;;25.57;64.87;100566.27;184891;1238;44771;-62
2023/06/25 11:18:14;;;;;;;9.00;4.00;;;;;;;25.63;63.51;100564.55;184830;1240;46063;-62
2023/06/25 11:22:16;;;;;;;5.10;4.10;;;;;;;25.82;62.52;100564.88;184824;1240;58788;-62
2023/06/25 11:26:17;;;;;;;11.90;5.00;;;;;;;26.04;62.05;100555.04;184808;1237;46154;-63
2023/06/25 11:30:19;;;;;;;5.30;4.80;;;;;;;26.17;62.18;100549.92;184716;1240;45944;-63
2023/06/25 11:34:27;;;;;;;4.70;3.80;;;;;;;26.19;66.80;100548.98;184601;1238;43765;-62
2023/06/25 11:38:30;;;;;;;4.80;4.30;;;;;;;26.18;66.19;100548.73;184614;1238;44959;-62
2023/06/25 11:42:44;;;;;;;6.90;4.20;;;;;;;26.43;63.71;100546.24;184797;1238;59241;-62
2023/06/25 11:46:52;;;;;;;4.20;3.30;;;;;;;26.49;62.27;100546.77;184781;1237;46088;-63
2023/06/25 11:51:06;;;;;;;5.90;3.80;;;;;;;26.48;62.26;100540.23;184671;1236;43579;-63
2023/06/25 11:55:08;;;;;;;3.90;3.20;;;;;;;26.64;63.03;100532.17;184814;1237;44964;-63
2023/06/25 11:59:10;;;;;;;4.10;3.30;;;;;;;26.71;61.84;100525.92;184869;1237;44856;-63
2023/06/25 12:03:12;;;;;;;3.40;2.80;;;;;;;26.57;61.59;100520.62;184778;1238;59175;-62
2023/06/25 12:07:14;;;;;;;4.00;3.20;;;;;;;26.68;62.47;100514.37;184908;1240;43502;-62
2023/06/25 12:11:17;;;;;;;5.30;3.40;;;;;;;26.77;61.30;100512.01;184966;1238;44972;-62
2023/06/25 12:15:19;;;;;;;3.80;3.30;;;;;;;26.83;61.94;100513.45;184682;1237;46060;-62
2023/06/25 12:19:20;;;;;;;3.40;3.00;;;;;;;26.97;63.81;100509.98;184853;1237;43818;-62
2023/06/25 12:23:22;;;;;;;4.20;3.60;;;;;;;27.05;61.25;100507.27;184841;1238;58486;-61
2023/06/25 12:27:25;;;;;;;5.40;2.60;;;;;;;26.70;59.52;100503.20;184683;1238;45935;-63
2023/06/25 12:31:27;;;;;;;4.50;3.00;;;;;;;26.57;61.89;100501.20;184550;1237;44095;-62
2023/06/25 12:35:30;;;;;;;3.90;3.30;;;;;;;26.53;59.42;100491.67;184683;1237;43699;-62
2023/06/25 12:39:31;;;;;;;3.70;2.60;;;;;;;26.67;64.24;100490.30;185439;1237;43508;-64
2023/06/25 12:43:34;;;;;;;5.70;3.00;;;;;;;26.96;63.81;100485.52;185413;1240;58165;-66
2023/06/25 12:47:36;;;;;;;4.40;3.50;;;;;;;26.98;60.74;100485.35;185079;1238;43776;-63
2023/06/25 12:51:38;;;;;;;3.90;3.20;;;;;;;26.88;60.76;100484.56;184954;1238;45886;-62
2023/06/25 12:55:40;;;;;;;4.50;3.00;;;;;;;27.16;59.80;100485.95;184772;1238;43635;-62
2023/06/25 12:59:46;;;;;;;4.40;2.40;;;;;;;27.30;60.96;100474.79;184968;1237;43600;-61
2023/06/25 13:03:47;;;;;;;3.90;3.40;;;;;;;27.46;60.14;100478.48;185032;1237;58800;-62
2023/06/25 13:07:53;;;;;;;3.40;2.70;;;;;;;27.49;59.27;100479.80;184962;1238;44914;-61
2023/06/25 13:11:54;;;;;;;3.10;2.80;;;;;;;27.73;59.09;100473.82;184948;1237;43839;-61
2023/06/25 13:15:56;;;;;;;4.40;2.80;;;;;;;27.84;57.03;100473.86;184724;1237;43750;-61
2023/06/25 13:19:57;;;;;;;4.80;2.30;;;;;;;27.55;56.63;100483.59;184855;1239;44758;-61
2023/06/25 13:24:02;;;;;;;3.60;2.90;;;;;;;27.47;58.75;100479.05;184697;1239;58359;-62
2023/06/25 13:28:06;;;;;;;3.00;2.70;;;;;;;27.41;56.77;100474.92;184674;1237;45926;-61
2023/06/25 13:32:11;;;;;;;3.30;2.50;;;;;;;27.46;57.20;100473.51;184991;1237;43466;-62
2023/06/25 13:36:13;;;;;;;4.00;2.60;;;;;;;27.29;60.54;100469.14;184995;1237;45886;-63
2023/06/25 13:40:14;;;;;;;5.10;3.20;;;;;;;26.92;59.56;100465.95;184985;1237;43749;-61
2023/06/25 13:44:35;;;;;;;5.20;2.90;;;;;;;26.69;59.42;100461.14;184940;1238;57412;-61
2023/06/25 13:48:36;;;;;;;4.20;3.20;;;;;;;26.68;62.72;100455.57;185009;1240;43687;-60
2023/06/25 13:52:38;;;;;;;4.40;3.30;;;;;;;26.76;61.97;100451.70;184864;1237;45839;-61
2023/06/25 13:56:40;;;;;;;3.70;3.30;;;;;;;27.13;63.74;100449.34;184918;1237;45199;-60
2023/06/25 14:00:41;;;;;;;5.20;3.20;;;;;;;27.55;62.42;100444.72;184694;1237;171893;-62
2023/06/25 14:04:43;;;;;;;14.00;3.70;;;;;;;27.92;61.48;100440.44;184753;1237;58408;-63
2023/06/25 14:08:52;;;;;;;4.80;3.20;;;;;;;28.13;59.05;100436.75;184874;1238;46107;-61
2023/06/25 14:12:54;;;;;;;3.50;2.60;;;;;;;28.27;59.38;100432.00;184657;1237;45893;-61
2023/06/25 14:16:55;;;;;;;5.50;2.60;;;;;;;28.11;57.86;100434.69;184865;1237;44760;-61
2023/06/25 14:20:57;;;;;;;4.40;2.70;;;;;;;28.08;58.88;100428.26;184995;1237;43666;-63
2023/06/25 14:24:58;;;;;;;4.70;2.70;;;;;;;28.28;58.03;100434.91;185344;1237;58168;-63
2023/06/25 14:29:00;;;;;;;8.50;3.40;;;;;;;28.30;57.35;100429.20;185323;1237;43543;-62
2023/06/25 14:33:16;;;;;;;2.70;2.20;;;;;;;28.15;58.45;100423.30;185276;1237;44897;-61
2023/06/25 14:37:20;;;;;;;3.20;2.90;;;;;;;28.02;58.68;100424.25;185136;1237;44486;-61
2023/06/25 14:41:23;;;;;;;5.60;3.40;;;;;;;27.75;60.24;100424.95;184810;1237;43815;-61
2023/06/25 14:45:25;;;;;;;3.70;3.30;;;;;;;27.71;62.77;100422.56;184724;1238;59260;-61
2023/06/25 14:49:29;;;;;;;4.70;2.60;;;;;;;27.80;58.57;100418.84;184782;1237;44703;-62
2023/06/25 14:53:31;;;;;;;14.70;3.90;;;;;;;27.92;59.11;100413.91;184744;1237;45035;-61
2023/06/25 14:57:33;;;;;;;2.80;2.20;;;;;;;27.97;58.52;100414.36;184677;1238;46023;-61
2023/06/25 15:01:37;;;;;;;4.10;2.90;;;;;;;28.06;57.03;100406.84;184753;1237;44939;-60
2023/06/25 15:05:41;;;;;;;4.00;2.70;;;;;;;28.05;58.78;100402.33;184735;1237;59002;-61
2023/06/25 15:10:04;;;;;;;6.70;3.50;;;;;;;28.04;60.58;100394.55;184887;1238;43513;-61
2023/06/25 15:14:06;;;;;;;3.30;2.50;;;;;;;28.21;57.76;100393.20;184671;1237;45882;-60
2023/06/25 15:18:10;;;;;;;3.20;2.60;;;;;;;28.11;55.61;100391.69;184617;1238;45952;-62
2023/06/25 15:22:11;;;;;;;3.20;2.30;;;;;;;27.97;56.09;100390.25;184896;1237;45935;-61
2023/06/25 15:26:13;;;;;;;3.10;2.80;;;;;;;27.80;55.79;100388.27;184758;1237;58600;-61
2023/06/25 15:30:15;;;;;;;3.00;2.30;;;;;;;27.54;56.70;100387.00;184668;1238;44366;-60
2023/06/25 15:34:17;;;;;;;3.10;2.60;;;;;;;27.15;60.64;100388.58;184635;1237;45847;-61
2023/06/25 15:38:19;;;;;;;4.20;2.50;;;;;;;27.14;63.42;100382.88;184948;1238;44601;-62
2023/06/25 15:42:20;;;;;;;3.50;3.10;;;;;;;27.31;63.15;100374.64;185270;1238;43461;-61
2023/06/25 15:46:22;;;;;;;3.60;3.30;;;;;;;27.40;61.12;100373.84;185191;1237;58502;-63
2023/06/25 15:50:24;;;;;;;3.50;2.50;;;;;;;27.59;62.32;100370.48;185099;1237;43701;-61
2023/06/25 15:54:25;;;;;;;3.10;2.50;;;;;;;27.79;60.25;100359.91;184903;1237;45994;-61
2023/06/25 15:58:28;;;;;;;2.80;2.40;;;;;;;27.63;58.79;100355.75;184896;1239;46040;-61
2023/06/25 16:02:58;;;;;;;4.40;2.10;;;;;;;27.18;60.20;100359.92;184858;1239;46058;-61
2023/06/25 16:07:03;;;;;;;5.40;3.70;;;;;;;26.73;62.84;100353.99;184707;1238;58165;-62
2023/06/25 16:11:06;;;;;;;14.00;3.10;;;;;;;26.62;68.49;100355.67;184729;1238;46006;-61
2023/06/25 16:15:09;;;;;;;3.90;3.10;;;;;;;26.77;69.31;100351.74;184832;1240;46073;-60
2023/06/25 16:19:11;;;;;;;6.50;3.20;;;;;;;26.79;68.62;100346.94;184640;1237;43500;-60
2023/06/25 16:23:32;;;;;;;3.60;2.90;;;;;;;26.51;69.82;100341.78;184729;1237;43869;-60
2023/06/25 16:27:34;;;;;;;2.70;2.50;;;;;;;26.22;72.21;100341.56;184785;1238;60700;-60
2023/06/25 16:31:36;;;;;;;5.00;3.70;;;;;;;26.19;73.79;100337.59;184835;1237;46075;-60
2023/06/25 16:36:04;;;;;;;6.30;3.80;;;;;;;26.25;76.34;100339.55;184680;1237;43456;-60
2023/06/25 16:40:06;;;;;;;3.40;2.50;;;;;;;26.35;72.60;100334.15;184864;1237;43871;-60
2023/06/25 16:44:08;;;;;;;7.00;4.00;;;;;;;26.45;71.09;100335.23;184925;1237;45928;-60
2023/06/25 16:48:09;;;;;;;6.60;3.00;;;;;;;26.43;68.85;100333.71;184743;1237;59208;-60
2023/06/25 16:52:12;;;;;;;5.00;3.40;;;;;;;26.30;70.92;100337.73;184684;1236;43879;-60
2023/06/25 16:56:14;;;;;;;3.20;2.40;;;;;;;25.96;75.37;100335.41;184880;1238;43458;-60
2023/06/25 17:00:16;;;;;;;4.20;3.80;;;;;;;25.73;75.29;100333.36;184762;1238;46125;-61
2023/06/25 17:04:18;;;;;;;4.90;4.00;;;;;;;25.65;76.75;100334.15;184657;1237;44591;-59
2023/06/25 17:08:23;;;;;;;6.70;4.00;;;;;;;25.61;77.70;100332.45;184790;1237;58442;-63
2023/06/25 17:22:22;;;;;;;7.20;3.90;;;;;;;25.35;83.64;100330.85;184795;1237;43877;-63
2023/06/25 17:26:30;;;;;;;6.30;3.30;;;;;;;25.33;84.19;100330.86;184772;1238;46054;-60
2023/06/25 17:30:32;;;;;;;9.50;4.70;;;;;;;25.40;82.62;100328.67;184845;1240;58429;-61
2023/06/25 17:34:40;;;;;;;6.00;4.60;;;;;;;25.39;82.33;100324.77;184848;1237;43866;-61
2023/06/25 17:38:44;;;;;;;5.10;3.90;;;;;;;25.37;84.49;100324.35;184940;1237;43839;-60
2023/06/25 17:42:45;;;;;;;17.70;5.50;;;;;;;25.33;84.43;100321.81;184669;1238;45948;-62
2023/06/25 17:46:48;;;;;;;9.10;4.90;;;;;;;25.31;82.93;100318.73;185122;1237;45278;-62
2023/06/25 17:50:50;;;;;;;5.40;4.10;;;;;;;25.34;81.83;100316.41;184774;1238;57095;-61
2023/06/25 17:54:52;;;;;;;4.70;3.50;;;;;;;25.41;82.11;100319.02;184914;1237;43635;-60
2023/06/25 17:58:53;;;;;;;4.40;3.50;;;;;;;25.42;84.85;100322.36;184909;1237;43850;-60
2023/06/25 18:02:55;;;;;;;5.00;3.80;;;;;;;25.42;84.24;100319.86;184872;1240;46075;-60
2023/06/25 18:06:57;;;;;;;5.40;3.70;;;;;;;25.44;86.23;100322.06;184972;1238;45033;-60
2023/06/25 18:10:59;;;;;;;3.50;3.00;;;;;;;25.44;85.60;100320.30;184811;1237;58129;-61
2023/06/25 18:15:01;;;;;;;9.40;4.40;;;;;;;25.39;84.91;100323.73;184685;1237;45111;-63
2023/06/25 18:19:03;;;;;;;3.70;3.30;;;;;;;25.27;85.64;100321.95;185204;1237;44036;-62
2023/06/25 18:23:05;;;;;;;3.60;2.90;;;;;;;25.13;87.64;100316.97;185162;1238;43580;-62
2023/06/25 18:27:14;;;;;;;4.70;3.30;;;;;;;25.04;88.87;100318.46;185207;1238;44751;-63
2023/06/25 18:31:16;;;;;;;5.40;3.30;;;;;;;24.95;88.77;100316.44;184990;1238;57375;-61
2023/06/25 18:35:18;;;;;;;4.70;4.20;;;;;;;24.86;87.37;100316.58;184666;1237;45011;-61
2023/06/25 18:39:20;;;;;;;4.40;3.30;;;;;;;24.75;87.79;100317.23;184938;1237;44584;-61
2023/06/25 18:43:21;;;;;;;4.30;2.80;;;;;;;24.54;87.30;100322.10;184899;1238;43510;-60
2023/06/25 18:47:24;;;;;;;6.90;4.10;;;;;;;24.39;87.19;100319.91;184689;1237;46005;-62